Time;durP1;ratioP1;P1;durP2;ratioP2;P2;SDS_P1;SDS_P2;PMS_P1;PMS_P2;Temp;Humidity;BMP_temperature;BMP_pressure;BME280_temperature;BME280_humidity;BME280_pressure;Samples;Min_cycle;Max_cycle;Signal;HPM_P1;HPM_P2
2023/03/29 00:00:00;;;;;;;6.07;5.28;;;;;;;19.22;45.51;97339.34;10374850;28;20050;-75
2023/03/29 00:05:40;;;;;;;6.65;5.40;;;;;;;19.21;45.50;97332.31;10341400;28;20141;-75
2023/03/29 00:10:59;;;;;;;6.32;4.95;;;;;;;19.18;45.30;97336.44;10359500;28;20068;-75
2023/03/29 00:16:19;;;;;;;6.43;5.18;;;;;;;19.16;45.28;97325.94;10373045;28;20042;-75
2023/03/29 00:21:39;;;;;;;6.22;4.93;;;;;;;19.15;45.46;97334.34;10373106;28;20041;-75
2023/03/29 00:26:59;;;;;;;6.53;4.93;;;;;;;19.13;45.32;97340.09;10368979;28;20050;-75
2023/03/29 00:32:19;;;;;;;6.47;4.88;;;;;;;19.11;45.32;97336.91;10372875;28;20457;-75
2023/03/29 00:37:40;;;;;;;5.82;5.13;;;;;;;19.11;45.20;97336.91;10387341;28;20042;-75
2023/03/29 00:42:59;;;;;;;5.63;4.57;;;;;;;19.11;45.33;97334.19;10359347;28;20054;-72
2023/03/29 00:48:25;;;;;;;4.95;4.43;;;;;;;19.10;45.34;97324.47;10386108;28;20042;-72
2023/03/29 00:53:48;;;;;;;5.60;4.65;;;;;;;19.10;45.18;97323.69;10372196;28;20077;-72
2023/03/29 00:59:34;;;;;;;6.18;4.65;;;;;;;19.07;45.11;97327.00;10372216;28;20487;-72
2023/03/29 01:05:07;;;;;;;5.05;4.38;;;;;;;19.06;45.03;97303.81;10372416;28;20486;-72
2023/03/29 01:10:31;;;;;;;5.35;4.63;;;;;;;19.05;45.24;97302.19;10358085;28;20049;-72
2023/03/29 01:15:53;;;;;;;5.22;4.30;;;;;;;19.03;45.15;97299.81;10386529;28;20048;-72
2023/03/29 01:21:29;;;;;;;5.78;4.68;;;;;;;19.02;45.08;97303.63;10371809;28;20050;-72
2023/03/29 01:27:14;;;;;;;5.18;4.60;;;;;;;19.01;45.19;97293.13;10382051;28;20576;-72
2023/03/29 01:32:41;;;;;;;5.38;4.70;;;;;;;18.99;45.38;97292.63;10371523;28;20096;-72
2023/03/29 01:38:07;;;;;;;5.35;4.47;;;;;;;18.98;45.01;97286.44;10344084;28;20042;-72
2023/03/29 01:43:31;;;;;;;5.75;4.95;;;;;;;18.98;44.98;97291.84;10377284;28;20050;-72
2023/03/29 01:48:55;;;;;;;4.90;4.10;;;;;;;18.97;45.05;97287.53;10378634;28;20041;-72
2023/03/29 01:54:19;;;;;;;4.53;4.07;;;;;;;18.95;44.91;97287.06;10378492;28;20053;-72
2023/03/29 01:59:41;;;;;;;4.55;3.95;;;;;;;18.94;45.07;97286.25;10378249;28;20414;-72
2023/03/29 02:05:01;;;;;;;4.22;3.75;;;;;;;18.92;45.16;97285.00;10377962;28;20072;-72
2023/03/29 02:10:22;;;;;;;4.38;3.97;;;;;;;18.92;45.00;97282.28;10364081;28;20092;-72
2023/03/29 02:15:43;;;;;;;4.88;4.07;;;;;;;18.90;45.03;97265.59;10377501;28;20049;-72
2023/03/29 02:21:03;;;;;;;6.53;4.40;;;;;;;18.89;44.98;97262.09;10377347;28;20046;-72
2023/03/29 02:26:23;;;;;;;5.72;4.07;;;;;;;18.88;44.91;97254.31;10361052;28;20057;-72
2023/03/29 02:31:47;;;;;;;5.85;3.92;;;;;;;18.86;44.99;97235.72;10376919;28;20116;-72
2023/03/29 02:37:14;;;;;;;4.88;3.83;;;;;;;18.86;44.79;97243.03;10363478;28;20069;-72
2023/03/29 02:42:34;;;;;;;4.22;3.80;;;;;;;18.83;44.90;97236.31;10363525;28;20517;-75
2023/03/29 02:47:55;;;;;;;4.70;3.83;;;;;;;18.84;44.80;97226.34;10376337;28;20042;-75
2023/03/29 02:53:18;;;;;;;3.72;3.38;;;;;;;18.81;44.77;97216.16;10374845;28;20049;-75
2023/03/29 02:58:39;;;;;;;4.70;3.67;;;;;;;18.81;44.89;97216.94;10375895;28;20056;-75
2023/03/29 03:03:59;;;;;;;4.93;4.07;;;;;;;18.78;44.95;97223.72;10375652;28;20045;-75
2023/03/29 03:09:18;;;;;;;3.72;3.42;;;;;;;18.77;44.81;97208.63;10390164;28;20049;-75
2023/03/29 03:14:40;;;;;;;4.40;3.75;;;;;;;18.76;44.95;97201.66;10361766;28;20046;-75
2023/03/29 03:19:59;;;;;;;4.05;3.50;;;;;;;18.74;44.86;97206.56;10374940;28;20049;-75
2023/03/29 03:25:20;;;;;;;4.25;3.63;;;;;;;18.75;44.86;97201.97;10374983;28;20038;-75
2023/03/29 03:30:41;;;;;;;4.03;3.60;;;;;;;18.73;44.83;97202.25;10374744;28;20042;-75
2023/03/29 03:36:27;;;;;;;4.20;3.80;;;;;;;18.71;44.73;97196.38;10365034;28;20100;-75
2023/03/29 03:41:49;;;;;;;3.85;3.40;;;;;;;18.71;44.84;97192.88;10374594;28;20046;-75
2023/03/29 03:47:13;;;;;;;4.47;3.55;;;;;;;18.68;44.82;97178.13;10374237;28;20045;-75
2023/03/29 03:52:33;;;;;;;4.43;3.58;;;;;;;18.68;44.80;97174.59;10346735;28;20042;-75
2023/03/29 03:57:54;;;;;;;3.42;3.08;;;;;;;18.67;44.82;97184.59;10360111;28;20042;-75
2023/03/29 04:03:14;;;;;;;3.78;3.40;;;;;;;18.65;44.76;97186.81;10373217;28;20065;-75
2023/03/29 04:08:34;;;;;;;3.40;3.10;;;;;;;18.65;44.78;97177.94;10373278;28;20041;-75
2023/03/29 04:14:09;;;;;;;3.92;3.10;;;;;;;18.63;44.67;97186.34;10375013;28;20042;-75
2023/03/29 04:19:47;;;;;;;;;;;;;;;18.63;44.53;97183.63;10376226;28;20050;-75
2023/03/29 04:25:07;;;;;;;3.35;2.92;;;;;;;18.63;44.78;97180.94;10353945;28;20388;-75
2023/03/29 04:30:40;;;;;;;4.10;3.58;;;;;;;18.62;44.68;97179.34;10354569;28;20073;-75
2023/03/29 04:36:14;;;;;;;3.70;3.20;;;;;;;18.62;44.60;97182.06;10338382;28;20042;-75
2023/03/29 04:41:34;;;;;;;3.58;3.28;;;;;;;18.63;44.67;97180.16;10350129;28;20410;-75
2023/03/29 04:47:06;;;;;;;3.50;3.05;;;;;;;18.63;44.65;97175.53;10342209;28;20042;-75
2023/03/29 04:52:39;;;;;;;3.40;3.10;;;;;;;18.64;44.77;97182.53;10361607;28;20069;-75
2023/03/29 04:58:00;;;;;;;3.85;3.20;;;;;;;18.67;44.87;97187.31;10372173;28;20077;-75
2023/03/29 05:03:38;;;;;;;4.78;2.88;;;;;;;18.68;45.14;97190.78;10360824;28;20046;-75
2023/03/29 05:09:07;;;;;;;3.45;3.15;;;;;;;18.69;45.12;97187.78;10359391;28;20050;-75
2023/03/29 05:14:41;;;;;;;76.93;46.88;;;;;;;18.72;45.35;97189.88;10358604;28;20057;-75
2023/03/29 05:20:08;;;;;;;32.65;20.90;;;;;;;18.74;45.22;97184.19;10365793;28;20042;-75
2023/03/29 05:25:27;;;;;;;25.52;17.70;;;;;;;18.77;46.12;97173.53;10363808;28;20034;-75
2023/03/29 05:30:58;;;;;;;24.33;15.75;;;;;;;18.79;45.36;97167.84;10365350;28;20502;-75
2023/03/29 05:36:18;;;;;;;17.65;12.93;;;;;;;18.83;45.19;97165.34;10365287;28;20048;-75
2023/03/29 05:41:41;;;;;;;22.30;13.40;;;;;;;18.86;45.21;97164.75;10365503;28;20053;-75
2023/03/29 05:47:29;;;;;;;;;;;;;;;18.89;44.92;97158.72;10360263;28;20415;-75
2023/03/29 05:52:49;;;;;;;19.25;11.68;;;;;;;18.91;45.14;97161.91;10337467;28;19934;-75
2023/03/29 05:58:12;;;;;;;17.27;12.45;;;;;;;18.95;45.55;97157.47;10337131;28;20113;-75
2023/03/29 06:03:33;;;;;;;16.40;11.52;;;;;;;18.99;45.07;97157.63;10324026;28;20047;-75
2023/03/29 06:08:53;;;;;;;15.75;11.98;;;;;;;19.01;45.02;97147.31;10337392;28;20038;-75
2023/03/29 06:14:36;;;;;;;15.90;10.93;;;;;;;19.04;44.99;97154.81;10326766;28;20438;-75
2023/03/29 06:20:13;;;;;;;16.38;10.73;;;;;;;19.09;44.93;97154.66;10325461;28;20046;-75
2023/03/29 06:25:37;;;;;;;15.20;11.50;;;;;;;19.11;44.78;97155.97;10319372;28;20046;-75
2023/03/29 06:31:00;;;;;;;14.32;10.02;;;;;;;19.16;44.64;97158.50;10319150;28;20046;-75
2023/03/29 06:36:24;;;;;;;14.82;10.15;;;;;;;19.20;44.50;97138.97;10320537;28;20093;-75
2023/03/29 06:41:44;;;;;;;15.98;10.45;;;;;;;19.24;44.47;97145.34;10336350;28;20049;-75
2023/03/29 06:47:28;;;;;;;14.63;10.23;;;;;;;19.27;44.34;97155.53;10335738;28;20054;-75
2023/03/29 06:52:47;;;;;;;11.73;9.35;;;;;;;19.32;44.37;97150.75;10322721;28;20042;-75
2023/03/29 06:58:08;;;;;;;14.30;10.05;;;;;;;19.35;44.18;97149.34;10321737;28;20049;-75
2023/03/29 07:03:28;;;;;;;14.23;9.68;;;;;;;19.40;44.37;97143.78;10321685;28;20100;-75
2023/03/29 07:08:51;;;;;;;12.80;9.38;;;;;;;19.44;44.11;97149.34;10321860;28;20042;-75
2023/03/29 07:14:20;;;;;;;10.90;8.57;;;;;;;19.49;44.17;97149.22;10335021;28;20054;-75
2023/03/29 07:19:40;;;;;;;12.55;9.40;;;;;;;19.53;44.34;97161.00;10334577;28;20054;-75
2023/03/29 07:25:22;;;;;;;13.20;8.88;;;;;;;19.56;44.30;97153.06;10323801;28;20049;-75
2023/03/29 07:30:42;;;;;;;11.75;8.95;;;;;;;19.61;44.08;97154.00;10333990;28;20046;-75
2023/03/29 07:36:09;;;;;;;11.80;8.75;;;;;;;19.65;44.14;97150.34;10321110;28;20049;-75
2023/03/29 07:41:29;;;;;;;11.25;8.82;;;;;;;19.68;44.11;97147.03;10320178;28;20054;-75
2023/03/29 07:47:00;;;;;;;10.13;7.68;;;;;;;19.73;44.06;97146.09;10333540;28;20487;-75
2023/03/29 07:52:20;;;;;;;10.77;8.10;;;;;;;19.77;44.08;97143.56;10348077;28;20046;-75
2023/03/29 07:57:42;;;;;;;11.90;8.25;;;;;;;19.80;43.87;97142.91;10305750;28;20092;-75
2023/03/29 08:03:02;;;;;;;9.80;7.60;;;;;;;19.84;43.92;97139.28;10333060;28;20479;-75
2023/03/29 08:08:23;;;;;;;9.48;7.40;;;;;;;19.88;43.91;97140.22;10319301;28;20454;-75
2023/03/29 08:13:47;;;;;;;10.00;8.02;;;;;;;19.92;43.93;97141.19;10333226;28;20034;-75
2023/03/29 08:19:25;;;;;;;9.93;7.13;;;;;;;19.96;43.99;97135.94;10347303;28;20044;-75
2023/03/29 08:24:55;;;;;;;9.60;7.45;;;;;;;20.00;43.91;97128.00;10333817;28;20049;-75
2023/03/29 08:30:21;;;;;;;11.52;7.50;;;;;;;20.03;43.97;97130.84;10319022;28;20054;-75
2023/03/29 08:35:42;;;;;;;9.32;6.95;;;;;;;20.08;43.90;97138.00;10318638;28;20035;-75
2023/03/29 08:41:24;;;;;;;10.88;6.90;;;;;;;20.11;43.84;97137.34;10332050;28;20050;-75
2023/03/29 08:47:13;;;;;;;9.80;7.03;;;;;;;20.14;43.75;97134.81;10331881;28;20046;-75
2023/03/29 08:52:38;;;;;;;10.00;7.25;;;;;;;20.19;43.89;97127.63;10333030;28;20407;-75
2023/03/29 08:58:18;;;;;;;11.13;6.93;;;;;;;20.22;43.69;97135.91;10340038;28;20047;-75
2023/03/29 09:03:43;;;;;;;11.80;7.00;;;;;;;20.23;43.72;97134.81;10326487;28;20104;-75
2023/03/29 09:09:15;;;;;;;10.20;6.80;;;;;;;20.26;43.54;97136.88;10326780;28;20054;-75
2023/03/29 09:14:46;;;;;;;11.15;7.22;;;;;;;20.27;43.67;97143.88;10325633;28;20049;-75
2023/03/29 09:20:32;;;;;;;11.75;7.47;;;;;;;20.28;43.53;97145.44;10325714;28;20047;-75
2023/03/29 09:26:15;;;;;;;11.95;7.03;;;;;;;20.31;43.71;97135.91;10311447;28;20062;-75
2023/03/29 09:31:55;;;;;;;12.00;6.88;;;;;;;20.31;43.62;97127.81;10338698;28;20047;-75
2023/03/29 09:37:27;;;;;;;10.52;6.78;;;;;;;20.31;43.50;97123.19;10325084;28;20618;-75
2023/03/29 09:42:50;;;;;;;11.73;7.88;;;;;;;20.34;43.73;97119.03;10325308;28;20442;-75
2023/03/29 09:48:15;;;;;;;11.35;6.50;;;;;;;20.34;43.48;97108.22;10324709;28;20428;-75
2023/03/29 09:53:39;;;;;;;9.77;6.72;;;;;;;20.35;43.55;97101.69;10337990;28;20101;-75
2023/03/29 09:59:18;;;;;;;11.82;7.25;;;;;;;20.35;43.54;97110.59;10352469;28;20038;-75
2023/03/29 10:04:41;;;;;;;10.27;6.47;;;;;;;20.37;43.73;97106.78;10336979;28;20042;-75
2023/03/29 10:10:07;;;;;;;11.77;6.90;;;;;;;20.38;44.15;97095.63;10310681;28;20157;-75
2023/03/29 10:15:28;;;;;;;9.80;6.30;;;;;;;20.39;43.99;97082.91;10337120;28;20038;-75
2023/03/29 10:20:47;;;;;;;9.30;6.55;;;;;;;20.40;44.17;97087.19;10337042;28;20053;-75
2023/03/29 10:26:18;;;;;;;8.95;6.00;;;;;;;20.40;44.31;97084.47;10335088;28;20050;-75
2023/03/29 10:31:41;;;;;;;9.40;5.82;;;;;;;20.39;44.22;97077.50;10350970;28;20479;-75
2023/03/29 10:37:01;;;;;;;8.65;5.85;;;;;;;20.40;44.30;97076.38;10337453;28;20047;-75
2023/03/29 10:42:22;;;;;;;9.05;5.95;;;;;;;20.39;44.25;97077.50;10322807;28;20050;-75
2023/03/29 10:47:43;;;;;;;8.70;5.53;;;;;;;20.39;44.19;97072.09;10336007;28;20042;-75
2023/03/29 10:53:12;;;;;;;8.48;5.57;;;;;;;20.38;44.22;97057.75;10335509;28;20038;-75
2023/03/29 10:59:09;;;;;;;8.38;5.82;;;;;;;20.40;44.17;97043.91;10335396;28;20065;-75
2023/03/29 11:04:59;;;;;;;7.43;5.40;;;;;;;20.38;44.14;97044.22;10320799;28;20047;-75
2023/03/29 11:10:43;;;;;;;7.78;5.25;;;;;;;20.38;44.11;97032.59;10349798;28;20510;-75
2023/03/29 11:16:16;;;;;;;7.72;5.20;;;;;;;20.38;44.25;97030.69;10320268;28;20399;-76
2023/03/29 11:21:48;;;;;;;6.90;4.80;;;;;;;20.38;44.32;97032.59;10334444;28;20489;-75
2023/03/29 11:27:16;;;;;;;8.43;5.10;;;;;;;20.37;44.13;97034.53;10344821;28;20046;-75
2023/03/29 11:32:55;;;;;;;6.80;4.88;;;;;;;20.36;44.21;97013.97;10334164;28;20089;-75
2023/03/29 11:38:53;;;;;;;6.63;4.28;;;;;;;20.36;44.23;97016.69;10333817;28;20034;-75
2023/03/29 11:44:20;;;;;;;6.75;4.60;;;;;;;20.36;44.10;97024.81;10333596;28;20041;-75
2023/03/29 11:49:43;;;;;;;6.35;4.78;;;;;;;20.37;44.20;97014.78;10333516;28;20503;-75
2023/03/29 11:55:13;;;;;;;6.03;4.50;;;;;;;20.35;44.13;97007.00;10333209;28;20113;-75
2023/03/29 12:00:39;;;;;;;5.82;4.68;;;;;;;20.35;44.15;96996.97;10332849;28;20042;-75
2023/03/29 12:06:03;;;;;;;5.93;4.43;;;;;;;20.33;44.32;96982.97;10305880;28;20054;-75
2023/03/29 12:11:30;;;;;;;6.00;4.32;;;;;;;20.33;44.35;96980.25;10318913;28;20049;-75
2023/03/29 12:17:03;;;;;;;6.47;4.30;;;;;;;20.32;44.22;96977.88;10332507;28;20047;-75
2023/03/29 12:22:22;;;;;;;6.40;4.22;;;;;;;20.32;44.26;96978.66;10332698;28;20050;-75
2023/03/29 12:28:04;;;;;;;6.20;4.20;;;;;;;20.31;44.67;96974.38;10326318;28;20050;-75
2023/03/29 12:33:51;;;;;;;7.43;4.55;;;;;;;20.30;44.35;96975.47;10333139;28;20415;-75
2023/03/29 12:39:30;;;;;;;5.55;3.92;;;;;;;20.30;44.31;96970.06;10346464;28;20042;-75
2023/03/29 12:45:13;;;;;;;;;;;;;;;20.29;44.31;96965.78;10347498;28;20039;-72
2023/03/29 12:50:42;;;;;;;5.85;3.88;;;;;;;20.30;44.59;96961.16;10331785;28;19929;-72
2023/03/29 12:56:02;;;;;;;7.05;4.18;;;;;;;20.28;44.43;96964.19;10346005;28;20038;-72
2023/03/29 13:01:23;;;;;;;4.68;3.67;;;;;;;20.26;44.47;96955.59;10318235;28;20046;-72
2023/03/29 13:06:46;;;;;;;5.80;3.78;;;;;;;20.27;44.47;96957.22;10331574;28;20065;-72
2023/03/29 13:12:20;;;;;;;4.57;3.65;;;;;;;20.26;44.60;96936.66;10317586;28;20050;-72
2023/03/29 13:18:06;;;;;;;4.13;3.63;;;;;;;20.25;44.61;96929.69;10331327;28;20424;-72
2023/03/29 13:23:29;;;;;;;5.03;3.90;;;;;;;20.26;44.73;96925.84;10345914;28;20044;-72
2023/03/29 13:29:08;;;;;;;4.63;3.47;;;;;;;20.24;44.67;96911.84;10322161;28;20055;-72
2023/03/29 13:34:39;;;;;;;4.45;3.53;;;;;;;20.25;44.67;96921.56;10330964;28;20042;-72
2023/03/29 13:39:59;;;;;;;4.47;3.30;;;;;;;20.24;44.54;96913.78;10337557;28;20066;-72
2023/03/29 13:45:21;;;;;;;5.13;3.63;;;;;;;20.24;44.63;96911.84;10338429;28;20043;-72
2023/03/29 13:50:52;;;;;;;4.15;3.58;;;;;;;20.23;44.76;96907.56;10384088;28;20045;-72
2023/03/29 13:56:17;;;;;;;2.90;2.60;;;;;;;20.21;40.79;96890.88;10393143;28;20042;-72
2023/03/29 14:01:53;;;;;;;3.70;2.03;;;;;;;20.05;35.25;96895.25;10364460;28;20490;-72
2023/03/29 14:07:13;;;;;;;2.50;1.95;;;;;;;19.64;34.19;96886.63;10378267;28;20501;-71
2023/03/29 14:12:35;;;;;;;3.13;1.73;;;;;;;19.15;34.20;96886.88;10377653;28;20050;-72
2023/03/29 14:17:56;;;;;;;2.10;1.70;;;;;;;18.89;34.36;96896.88;10377666;28;20077;-72
2023/03/29 14:23:19;;;;;;;1.52;1.42;;;;;;;18.73;36.08;96889.19;10377400;28;20050;-72
2023/03/29 14:28:46;;;;;;;1.38;1.27;;;;;;;19.12;37.93;96879.38;10383448;28;20053;-72
2023/03/29 14:34:10;;;;;;;3.03;1.27;;;;;;;19.38;37.85;96865.06;10363325;28;20045;-72
2023/03/29 14:39:32;;;;;;;1.95;1.35;;;;;;;19.54;38.20;96859.91;10363288;28;20045;-72
2023/03/29 14:44:57;;;;;;;1.30;1.13;;;;;;;19.63;38.62;96849.09;10376981;28;20056;-72
2023/03/29 14:50:23;;;;;;;2.72;1.40;;;;;;;19.68;38.96;96854.31;10362595;28;20488;-72
2023/03/29 14:55:45;;;;;;;2.17;1.40;;;;;;;19.71;39.14;96851.78;10362796;28;20046;-72
2023/03/29 15:01:16;;;;;;;2.55;1.40;;;;;;;19.74;39.59;96861.97;10376143;28;20383;-72
2023/03/29 15:06:38;;;;;;;2.88;1.42;;;;;;;19.77;39.90;96852.41;10375601;28;20112;-72
2023/03/29 15:11:59;;;;;;;2.90;1.48;;;;;;;19.82;40.01;96859.56;10375444;28;20053;-72
2023/03/29 15:17:35;;;;;;;2.40;1.60;;;;;;;19.84;40.25;96854.63;10389070;28;20054;-72
2023/03/29 15:22:57;;;;;;;2.00;1.40;;;;;;;19.87;40.39;96856.66;10375037;28;20104;-72
2023/03/29 15:28:28;;;;;;;1.30;1.20;;;;;;;19.87;40.62;96846.63;10382292;28;20054;-72
2023/03/29 15:33:48;;;;;;;1.70;1.40;;;;;;;19.89;40.92;96839.00;10360875;28;20042;-72
2023/03/29 15:39:11;;;;;;;2.08;1.42;;;;;;;19.91;41.03;96841.38;10360720;28;20071;-72
2023/03/29 15:44:32;;;;;;;1.67;1.30;;;;;;;19.93;40.95;96845.38;10374337;28;20050;-72
2023/03/29 15:49:52;;;;;;;2.55;1.25;;;;;;;19.95;41.16;96845.00;10360319;28;20046;-72
2023/03/29 15:55:11;;;;;;;1.40;1.30;;;;;;;19.96;41.27;96835.81;10373927;28;20045;-72
2023/03/29 16:00:31;;;;;;;1.23;1.13;;;;;;;19.95;41.51;96835.00;10373258;28;20045;-72
2023/03/29 16:05:53;;;;;;;1.52;1.15;;;;;;;19.97;41.68;96825.78;10373091;28;20042;-72
2023/03/29 16:11:12;;;;;;;1.30;1.05;;;;;;;19.98;41.38;96821.97;10373227;28;20042;-72
2023/03/29 16:16:33;;;;;;;1.27;1.17;;;;;;;19.97;41.31;96815.75;10359384;28;20053;-72
2023/03/29 16:21:54;;;;;;;1.90;1.40;;;;;;;19.96;41.61;96811.47;10387733;28;20042;-72
2023/03/29 16:27:13;;;;;;;1.83;1.40;;;;;;;19.97;41.45;96812.25;10354726;28;20046;-72
2023/03/29 16:32:32;;;;;;;1.35;1.20;;;;;;;19.97;41.57;96814.94;10358950;28;20045;-72
2023/03/29 16:37:52;;;;;;;1.55;1.35;;;;;;;19.95;41.64;96816.09;10372622;28;20049;-72
2023/03/29 16:43:16;;;;;;;1.63;1.30;;;;;;;19.95;41.64;96809.88;10372503;28;20061;-72
2023/03/29 16:48:35;;;;;;;1.60;1.30;;;;;;;19.95;41.82;96818.78;10358892;28;20041;-72
2023/03/29 16:53:55;;;;;;;1.30;1.17;;;;;;;19.94;42.10;96813.69;10345030;28;20053;-72
2023/03/29 16:59:15;;;;;;;1.42;1.13;;;;;;;19.94;42.04;96806.38;10357252;28;20037;-72
2023/03/29 17:04:35;;;;;;;1.80;1.48;;;;;;;19.95;42.25;96799.88;10358226;28;20057;-72
2023/03/29 17:09:55;;;;;;;2.08;1.40;;;;;;;19.94;42.48;96797.47;10367445;28;20126;-72
2023/03/29 17:15:16;;;;;;;9.40;3.75;;;;;;;19.94;42.85;96795.56;10325767;28;20487;-72
2023/03/29 17:20:38;;;;;;;119.18;40.33;;;;;;;19.97;44.34;96793.31;10311717;28;20049;-72
2023/03/29 17:25:58;;;;;;;46.55;20.52;;;;;;;19.98;43.74;96797.63;10325506;28;20046;-72
2023/03/29 17:31:18;;;;;;;31.67;15.20;;;;;;;19.97;46.23;96798.72;10357132;28;20442;-72
2023/03/29 17:36:39;;;;;;;30.98;12.48;;;;;;;19.96;46.23;96795.25;10379261;28;20044;-72
2023/03/29 17:41:59;;;;;;;25.88;11.57;;;;;;;19.97;46.13;96804.13;10380329;28;20046;-72
2023/03/29 17:47:19;;;;;;;21.50;10.70;;;;;;;19.95;45.86;96813.38;10365415;28;20044;-72
2023/03/29 17:52:39;;;;;;;20.05;9.70;;;;;;;19.95;45.89;96807.97;10364827;28;20069;-72
2023/03/29 17:57:59;;;;;;;21.00;8.80;;;;;;;19.94;45.80;96803.66;10364642;28;20048;-72
2023/03/29 18:03:19;;;;;;;16.25;7.93;;;;;;;19.94;45.84;96808.28;10376977;28;20052;-72
2023/03/29 18:08:40;;;;;;;15.57;7.65;;;;;;;19.93;45.57;96810.22;10374049;28;20052;-72
2023/03/29 18:14:00;;;;;;;14.52;6.93;;;;;;;19.93;45.52;96814.81;10379443;28;20434;-72
2023/03/29 18:19:19;;;;;;;13.02;6.18;;;;;;;19.92;45.34;96813.25;10363755;28;20046;-72
2023/03/29 18:24:39;;;;;;;14.35;6.15;;;;;;;19.92;45.54;96815.94;10377006;28;20042;-73
2023/03/29 18:30:00;;;;;;;12.40;5.38;;;;;;;19.90;45.47;96821.66;10380332;28;20054;-72
2023/03/29 18:35:20;;;;;;;13.00;5.63;;;;;;;19.90;45.46;96826.28;10392096;28;20042;-73
2023/03/29 18:40:40;;;;;;;12.75;5.43;;;;;;;19.89;45.42;96833.59;10377138;28;20042;-75
2023/03/29 18:46:00;;;;;;;10.43;4.80;;;;;;;19.89;45.42;96841.69;10363143;28;20552;-76
2023/03/29 18:51:21;;;;;;;8.23;4.18;;;;;;;19.88;45.64;96847.44;10363149;28;20061;-76
2023/03/29 18:56:41;;;;;;;11.40;4.75;;;;;;;19.89;45.12;96846.31;10391418;28;20052;-75
2023/03/29 19:02:01;;;;;;;10.68;4.30;;;;;;;19.87;45.41;96851.25;10362252;28;20050;-76
2023/03/29 19:07:21;;;;;;;10.25;3.75;;;;;;;19.85;45.64;96848.88;10375568;28;20509;-75
2023/03/29 19:12:40;;;;;;;7.97;4.10;;;;;;;19.86;45.78;96838.88;10375370;28;20100;-75
2023/03/29 19:18:00;;;;;;;10.57;3.85;;;;;;;19.85;45.82;96846.16;10375257;28;20453;-74
2023/03/29 19:23:21;;;;;;;9.27;3.47;;;;;;;19.85;45.97;96856.19;10375206;28;20560;-75
2023/03/29 19:28:41;;;;;;;7.43;3.75;;;;;;;19.83;46.06;96853.03;10366419;28;20089;-75
2023/03/29 19:34:01;;;;;;;10.25;3.63;;;;;;;19.82;46.18;96841.44;10388963;28;20060;-75
2023/03/29 19:39:21;;;;;;;7.35;3.28;;;;;;;19.83;46.35;96837.59;10389775;28;20109;-75
2023/03/29 19:44:40;;;;;;;7.22;3.22;;;;;;;19.80;46.38;96845.56;10374643;28;20128;-75
2023/03/29 19:50:00;;;;;;;6.70;3.00;;;;;;;19.81;46.45;96839.03;10374260;28;20100;-75
2023/03/29 19:55:20;;;;;;;7.97;3.25;;;;;;;19.79;46.44;96836.66;10373948;28;20411;-76
2023/03/29 20:00:40;;;;;;;7.75;3.70;;;;;;;19.79;46.44;96835.88;10373952;28;20056;-76
2023/03/29 20:06:00;;;;;;;6.50;2.88;;;;;;;19.77;46.50;96827.28;10373797;28;20100;-75
2023/03/29 20:11:22;;;;;;;5.55;3.03;;;;;;;19.76;46.47;96821.09;10388445;28;20505;-75
2023/03/29 20:16:42;;;;;;;5.38;2.95;;;;;;;19.76;46.40;96815.69;10388605;28;20048;-75
2023/03/29 20:22:03;;;;;;;5.20;2.65;;;;;;;19.76;46.53;96810.28;10388117;28;20057;-75
2023/03/29 20:27:22;;;;;;;5.93;2.90;;;;;;;19.75;46.45;96806.00;10367524;28;20046;-75
2023/03/29 20:32:42;;;;;;;6.35;2.60;;;;;;;19.73;46.52;96794.72;10358058;28;20053;-75
2023/03/29 20:38:01;;;;;;;6.07;2.95;;;;;;;19.72;46.60;96791.22;10359300;28;20051;-75
2023/03/29 20:43:21;;;;;;;6.07;2.78;;;;;;;19.72;46.64;96785.81;10373232;28;20057;-76
2023/03/29 20:48:53;;;;;;;5.05;2.80;;;;;;;19.72;46.48;96785.03;10372362;28;20494;-76
2023/03/29 20:54:13;;;;;;;5.45;3.05;;;;;;;19.71;46.47;96780.69;10373871;28;20041;-76
2023/03/29 20:59:36;;;;;;;5.88;2.50;;;;;;;19.68;46.42;96774.03;10372205;28;20528;-76
2023/03/29 21:04:59;;;;;;;6.05;2.72;;;;;;;19.68;46.43;96767.81;10386080;28;20065;-76
2023/03/29 21:10:18;;;;;;;4.25;2.17;;;;;;;19.68;46.36;96767.81;10358736;28;20046;-76
2023/03/29 21:15:39;;;;;;;4.07;2.55;;;;;;;19.66;46.26;96762.78;10372067;28;20053;-76
2023/03/29 21:20:58;;;;;;;4.05;2.60;;;;;;;19.65;46.49;96752.28;10372275;28;20096;-76
2023/03/29 21:26:18;;;;;;;4.68;2.60;;;;;;;19.65;46.39;96749.56;10369717;28;20054;-75
2023/03/29 21:31:38;;;;;;;4.60;2.53;;;;;;;19.63;46.28;96746.41;10386344;28;20042;-76
2023/03/29 21:36:57;;;;;;;4.90;2.40;;;;;;;19.63;46.27;96738.31;10357833;28;20379;-76
2023/03/29 21:42:17;;;;;;;4.28;2.35;;;;;;;19.62;46.31;96736.69;10371467;28;20049;-76
2023/03/29 21:47:37;;;;;;;4.75;2.45;;;;;;;19.60;46.18;96738.94;10357817;28;20418;-76
2023/03/29 21:52:56;;;;;;;4.88;2.40;;;;;;;19.59;46.25;96738.16;10371292;28;20075;-76
2023/03/29 21:58:16;;;;;;;3.72;2.33;;;;;;;19.58;46.19;96733.06;10373707;28;20049;-76
2023/03/29 22:03:36;;;;;;;3.53;2.17;;;;;;;19.58;46.26;96730.38;10364614;28;20049;-76
2023/03/29 22:08:56;;;;;;;3.95;2.53;;;;;;;19.56;46.15;96717.19;10364837;28;20050;-76
2023/03/29 22:14:15;;;;;;;3.60;2.30;;;;;;;19.55;45.96;96712.91;10377831;28;20479;-76
2023/03/29 22:19:38;;;;;;;3.80;1.95;;;;;;;19.54;46.01;96703.19;10377806;28;20441;-76
2023/03/29 22:24:58;;;;;;;3.83;2.50;;;;;;;19.52;46.05;96692.75;10392491;28;20383;-76
2023/03/29 22:30:17;;;;;;;3.88;2.17;;;;;;;19.51;46.07;96693.84;10349949;28;20410;-76
2023/03/29 22:35:37;;;;;;;3.50;2.25;;;;;;;19.50;46.00;96691.47;10377130;28;20042;-76
2023/03/29 22:40:56;;;;;;;3.72;2.35;;;;;;;19.50;45.86;96691.47;10377482;28;20046;-73
2023/03/29 22:46:15;;;;;;;4.22;1.90;;;;;;;19.49;45.87;96687.97;10376804;28;20046;-72
2023/03/29 22:51:35;;;;;;;4.45;1.90;;;;;;;19.47;45.96;96678.63;10390251;28;20042;-72
2023/03/29 22:56:55;;;;;;;3.63;2.10;;;;;;;19.46;45.87;96685.13;10376496;28;20108;-72
2023/03/29 23:02:15;;;;;;;3.25;1.98;;;;;;;19.44;45.87;96673.84;10390725;28;20046;-72
2023/03/29 23:07:35;;;;;;;3.78;2.28;;;;;;;19.43;45.92;96683.88;10375963;28;20038;-72
2023/03/29 23:13:09;;;;;;;3.33;2.00;;;;;;;19.43;45.82;96672.28;10375048;28;20050;-72
2023/03/29 23:18:31;;;;;;;4.25;2.28;;;;;;;19.42;45.73;96668.00;10375301;28;20049;-72
2023/03/29 23:23:50;;;;;;;3.15;1.75;;;;;;;19.40;45.91;96675.63;10390037;28;20046;-72
2023/03/29 23:29:10;;;;;;;3.65;2.05;;;;;;;19.40;45.78;96664.81;10380008;28;20410;-72
2023/03/29 23:34:30;;;;;;;3.55;2.10;;;;;;;19.38;45.67;96661.66;10388636;28;20438;-72
2023/03/29 23:39:50;;;;;;;2.72;2.10;;;;;;;19.38;45.88;96656.25;10361148;28;20053;-72
2023/03/29 23:45:14;;;;;;;2.28;2.00;;;;;;;19.36;45.76;96659.28;10347939;28;20065;-72
2023/03/29 23:50:34;;;;;;;2.38;1.90;;;;;;;19.34;45.76;96662.31;10389054;28;20053;-72
2023/03/29 23:56:01;;;;;;;3.50;2.00;;;;;;;19.36;45.67;96656.56;10374056;28;20048;-72
